sensor_id;sensor_type;location;lat;lon;timestamp;P1;durP1;ratioP1;P2;durP2;ratioP2
51612;SDS011;37694;51.748;14.326;2023-08-24T00:01:41;3.25;;;2.40;;
51612;SDS011;37694;51.748;14.326;2023-08-24T00:04:07;2.97;;;2.40;;
51612;SDS011;37694;51.748;14.326;2023-08-24T00:06:33;4.43;;;2.67;;
51612;SDS011;37694;51.748;14.326;2023-08-24T00:08:59;2.63;;;2.38;;
51612;SDS011;37694;51.748;14.326;2023-08-24T00:11:25;2.95;;;2.25;;
51612;SDS011;37694;51.748;14.326;2023-08-24T00:13:50;2.75;;;2.40;;
51612;SDS011;37694;51.748;14.326;2023-08-24T00:16:17;2.58;;;2.38;;
51612;SDS011;37694;51.748;14.326;2023-08-24T00:18:43;2.60;;;2.15;;
51612;SDS011;37694;51.748;14.326;2023-08-24T00:21:10;3.58;;;2.60;;
51612;SDS011;37694;51.748;14.326;2023-08-24T00:23:36;2.75;;;2.33;;
51612;SDS011;37694;51.748;14.326;2023-08-24T00:26:01;2.50;;;2.30;;
51612;SDS011;37694;51.748;14.326;2023-08-24T00:28:27;4.13;;;2.20;;
51612;SDS011;37694;51.748;14.326;2023-08-24T00:30:53;2.90;;;2.60;;
51612;SDS011;37694;51.748;14.326;2023-08-24T00:33:18;4.43;;;2.72;;
51612;SDS011;37694;51.748;14.326;2023-08-24T00:35:44;2.42;;;2.25;;
51612;SDS011;37694;51.748;14.326;2023-08-24T00:38:10;5.15;;;2.58;;
51612;SDS011;37694;51.748;14.326;2023-08-24T00:40:36;2.33;;;2.15;;
51612;SDS011;37694;51.748;14.326;2023-08-24T00:43:03;2.95;;;2.63;;
51612;SDS011;37694;51.748;14.326;2023-08-24T00:45:30;3.80;;;2.30;;
51612;SDS011;37694;51.748;14.326;2023-08-24T00:47:58;2.10;;;2.00;;
51612;SDS011;37694;51.748;14.326;2023-08-24T00:50:24;4.65;;;2.78;;
51612;SDS011;37694;51.748;14.326;2023-08-24T00:52:49;3.08;;;2.05;;
51612;SDS011;37694;51.748;14.326;2023-08-24T00:55:15;2.60;;;2.40;;
51612;SDS011;37694;51.748;14.326;2023-08-24T00:57:42;2.50;;;2.00;;
51612;SDS011;37694;51.748;14.326;2023-08-24T01:00:08;2.75;;;2.17;;
51612;SDS011;37694;51.748;14.326;2023-08-24T01:02:37;8.02;;;2.22;;
51612;SDS011;37694;51.748;14.326;2023-08-24T01:05:03;2.17;;;2.00;;
51612;SDS011;37694;51.748;14.326;2023-08-24T01:07:30;5.20;;;2.22;;
51612;SDS011;37694;51.748;14.326;2023-08-24T01:09:57;1.83;;;1.73;;
51612;SDS011;37694;51.748;14.326;2023-08-24T01:12:25;4.13;;;2.35;;
51612;SDS011;37694;51.748;14.326;2023-08-24T01:17:46;2.47;;;2.28;;
51612;SDS011;37694;51.748;14.326;2023-08-24T01:20:15;2.33;;;2.17;;
51612;SDS011;37694;51.748;14.326;2023-08-24T01:25:53;2.53;;;1.92;;
51612;SDS011;37694;51.748;14.326;2023-08-24T01:28:31;5.30;;;2.15;;
51612;SDS011;37694;51.748;14.326;2023-08-24T01:30:57;2.00;;;1.80;;
51612;SDS011;37694;51.748;14.326;2023-08-24T01:33:23;2.63;;;2.00;;
51612;SDS011;37694;51.748;14.326;2023-08-24T01:35:49;2.85;;;1.73;;
51612;SDS011;37694;51.748;14.326;2023-08-24T01:38:15;1.75;;;1.65;;
51612;SDS011;37694;51.748;14.326;2023-08-24T01:43:46;1.90;;;1.60;;
51612;SDS011;37694;51.748;14.326;2023-08-24T01:46:17;7.22;;;2.13;;
51612;SDS011;37694;51.748;14.326;2023-08-24T01:48:46;3.60;;;1.88;;
51612;SDS011;37694;51.748;14.326;2023-08-24T01:51:13;2.65;;;2.00;;
51612;SDS011;37694;51.748;14.326;2023-08-24T01:53:40;2.28;;;1.50;;
51612;SDS011;37694;51.748;14.326;2023-08-24T01:56:08;4.47;;;1.73;;
51612;SDS011;37694;51.748;14.326;2023-08-24T01:58:35;2.25;;;2.05;;
51612;SDS011;37694;51.748;14.326;2023-08-24T02:01:00;3.15;;;1.80;;
51612;SDS011;37694;51.748;14.326;2023-08-24T02:03:26;2.60;;;1.73;;
51612;SDS011;37694;51.748;14.326;2023-08-24T02:05:52;7.22;;;2.15;;
51612;SDS011;37694;51.748;14.326;2023-08-24T02:08:17;2.47;;;1.58;;
51612;SDS011;37694;51.748;14.326;2023-08-24T02:10:43;7.80;;;2.30;;
51612;SDS011;37694;51.748;14.326;2023-08-24T02:13:09;7.97;;;1.77;;
51612;SDS011;37694;51.748;14.326;2023-08-24T02:15:34;2.38;;;2.17;;
51612;SDS011;37694;51.748;14.326;2023-08-24T02:18:00;2.63;;;2.28;;
51612;SDS011;37694;51.748;14.326;2023-08-24T02:20:26;5.88;;;2.10;;
51612;SDS011;37694;51.748;14.326;2023-08-24T02:22:51;4.30;;;1.83;;
51612;SDS011;37694;51.748;14.326;2023-08-24T02:25:17;3.53;;;2.03;;
51612;SDS011;37694;51.748;14.326;2023-08-24T02:27:43;1.55;;;1.45;;
51612;SDS011;37694;51.748;14.326;2023-08-24T02:30:09;2.42;;;1.67;;
51612;SDS011;37694;51.748;14.326;2023-08-24T02:32:35;1.67;;;1.58;;
51612;SDS011;37694;51.748;14.326;2023-08-24T02:35:00;5.43;;;1.73;;
51612;SDS011;37694;51.748;14.326;2023-08-24T02:37:26;2.63;;;1.70;;
51612;SDS011;37694;51.748;14.326;2023-08-24T02:39:52;1.98;;;1.70;;
51612;SDS011;37694;51.748;14.326;2023-08-24T02:42:18;2.25;;;1.80;;
51612;SDS011;37694;51.748;14.326;2023-08-24T02:44:43;8.02;;;2.13;;
51612;SDS011;37694;51.748;14.326;2023-08-24T02:47:09;3.60;;;1.52;;
51612;SDS011;37694;51.748;14.326;2023-08-24T02:49:34;7.28;;;1.52;;
51612;SDS011;37694;51.748;14.326;2023-08-24T02:52:00;3.72;;;1.52;;
51612;SDS011;37694;51.748;14.326;2023-08-24T02:54:26;2.10;;;1.52;;
51612;SDS011;37694;51.748;14.326;2023-08-24T02:56:51;2.00;;;1.80;;
51612;SDS011;37694;51.748;14.326;2023-08-24T02:59:18;2.25;;;1.73;;
51612;SDS011;37694;51.748;14.326;2023-08-24T03:01:44;2.40;;;1.88;;
51612;SDS011;37694;51.748;14.326;2023-08-24T03:04:10;2.10;;;1.83;;
51612;SDS011;37694;51.748;14.326;2023-08-24T03:06:35;1.85;;;1.48;;
51612;SDS011;37694;51.748;14.326;2023-08-24T03:09:01;1.92;;;1.63;;
51612;SDS011;37694;51.748;14.326;2023-08-24T03:11:30;1.83;;;1.73;;
51612;SDS011;37694;51.748;14.326;2023-08-24T03:13:55;1.70;;;1.50;;
51612;SDS011;37694;51.748;14.326;2023-08-24T03:16:21;4.82;;;1.75;;
51612;SDS011;37694;51.748;14.326;2023-08-24T03:18:47;1.98;;;1.77;;
51612;SDS011;37694;51.748;14.326;2023-08-24T03:21:12;1.88;;;1.60;;
51612;SDS011;37694;51.748;14.326;2023-08-24T03:23:38;5.05;;;1.80;;
51612;SDS011;37694;51.748;14.326;2023-08-24T03:26:04;2.55;;;1.77;;
51612;SDS011;37694;51.748;14.326;2023-08-24T03:28:30;1.63;;;1.52;;
51612;SDS011;37694;51.748;14.326;2023-08-24T03:30:56;2.20;;;1.55;;
51612;SDS011;37694;51.748;14.326;2023-08-24T03:33:21;1.63;;;1.52;;
51612;SDS011;37694;51.748;14.326;2023-08-24T03:35:47;2.25;;;1.40;;
51612;SDS011;37694;51.748;14.326;2023-08-24T03:38:13;1.65;;;1.55;;
51612;SDS011;37694;51.748;14.326;2023-08-24T03:40:39;1.40;;;1.30;;
51612;SDS011;37694;51.748;14.326;2023-08-24T03:43:04;1.85;;;1.30;;
51612;SDS011;37694;51.748;14.326;2023-08-24T03:45:30;1.85;;;1.55;;
51612;SDS011;37694;51.748;14.326;2023-08-24T03:47:56;1.73;;;1.60;;
51612;SDS011;37694;51.748;14.326;2023-08-24T03:50:22;1.90;;;1.52;;
51612;SDS011;37694;51.748;14.326;2023-08-24T03:52:48;4.68;;;1.60;;
51612;SDS011;37694;51.748;14.326;2023-08-24T03:55:16;1.88;;;1.65;;
51612;SDS011;37694;51.748;14.326;2023-08-24T03:57:42;3.95;;;1.90;;
51612;SDS011;37694;51.748;14.326;2023-08-24T04:00:08;1.70;;;1.60;;
51612;SDS011;37694;51.748;14.326;2023-08-24T04:02:38;3.85;;;1.70;;
51612;SDS011;37694;51.748;14.326;2023-08-24T04:05:04;2.50;;;1.52;;
51612;SDS011;37694;51.748;14.326;2023-08-24T04:07:29;1.67;;;1.58;;
51612;SDS011;37694;51.748;14.326;2023-08-24T04:09:56;1.92;;;1.40;;
51612;SDS011;37694;51.748;14.326;2023-08-24T04:12:22;2.00;;;1.50;;
51612;SDS011;37694;51.748;14.326;2023-08-24T04:14:47;2.03;;;1.70;;
51612;SDS011;37694;51.748;14.326;2023-08-24T04:17:14;1.60;;;1.50;;
51612;SDS011;37694;51.748;14.326;2023-08-24T04:19:39;6.72;;;1.80;;
51612;SDS011;37694;51.748;14.326;2023-08-24T04:22:05;4.80;;;1.92;;
51612;SDS011;37694;51.748;14.326;2023-08-24T04:24:31;3.95;;;1.70;;
51612;SDS011;37694;51.748;14.326;2023-08-24T04:26:56;3.28;;;1.30;;
51612;SDS011;37694;51.748;14.326;2023-08-24T04:29:22;1.83;;;1.60;;
51612;SDS011;37694;51.748;14.326;2023-08-24T04:31:48;1.48;;;1.38;;
51612;SDS011;37694;51.748;14.326;2023-08-24T04:34:13;2.53;;;1.48;;
51612;SDS011;37694;51.748;14.326;2023-08-24T04:36:39;1.70;;;1.60;;
51612;SDS011;37694;51.748;14.326;2023-08-24T04:39:05;1.65;;;1.55;;
51612;SDS011;37694;51.748;14.326;2023-08-24T04:41:30;2.20;;;1.67;;
51612;SDS011;37694;51.748;14.326;2023-08-24T04:43:56;2.25;;;1.77;;
51612;SDS011;37694;51.748;14.326;2023-08-24T04:46:22;2.85;;;1.33;;
51612;SDS011;37694;51.748;14.326;2023-08-24T04:48:47;3.22;;;1.27;;
51612;SDS011;37694;51.748;14.326;2023-08-24T04:51:13;1.48;;;1.38;;
51612;SDS011;37694;51.748;14.326;2023-08-24T04:53:39;2.15;;;1.58;;
51612;SDS011;37694;51.748;14.326;2023-08-24T04:56:04;3.10;;;1.80;;
51612;SDS011;37694;51.748;14.326;2023-08-24T04:58:30;2.03;;;1.67;;
51612;SDS011;37694;51.748;14.326;2023-08-24T05:00:57;1.50;;;1.40;;
51612;SDS011;37694;51.748;14.326;2023-08-24T05:03:23;1.67;;;1.58;;
51612;SDS011;37694;51.748;14.326;2023-08-24T05:05:49;2.83;;;1.90;;
51612;SDS011;37694;51.748;14.326;2023-08-24T05:08:14;1.50;;;1.40;;
51612;SDS011;37694;51.748;14.326;2023-08-24T05:10:40;6.85;;;1.23;;
51612;SDS011;37694;51.748;14.326;2023-08-24T05:13:06;2.00;;;1.30;;
51612;SDS011;37694;51.748;14.326;2023-08-24T05:15:32;2.88;;;1.55;;
51612;SDS011;37694;51.748;14.326;2023-08-24T05:17:57;4.72;;;1.67;;
51612;SDS011;37694;51.748;14.326;2023-08-24T05:20:24;1.88;;;1.50;;
51612;SDS011;37694;51.748;14.326;2023-08-24T05:22:50;4.47;;;1.50;;
51612;SDS011;37694;51.748;14.326;2023-08-24T05:25:16;3.25;;;1.98;;
51612;SDS011;37694;51.748;14.326;2023-08-24T05:27:43;1.52;;;1.42;;
51612;SDS011;37694;51.748;14.326;2023-08-24T05:30:09;6.78;;;1.58;;
51612;SDS011;37694;51.748;14.326;2023-08-24T05:32:35;1.65;;;1.55;;
51612;SDS011;37694;51.748;14.326;2023-08-24T05:35:04;11.65;;;1.77;;
51612;SDS011;37694;51.748;14.326;2023-08-24T05:37:30;3.72;;;1.48;;
51612;SDS011;37694;51.748;14.326;2023-08-24T05:39:56;1.95;;;1.38;;
51612;SDS011;37694;51.748;14.326;2023-08-24T05:42:22;1.40;;;1.30;;
51612;SDS011;37694;51.748;14.326;2023-08-24T05:44:47;1.83;;;1.65;;
51612;SDS011;37694;51.748;14.326;2023-08-24T05:47:13;2.42;;;1.60;;
51612;SDS011;37694;51.748;14.326;2023-08-24T05:49:39;4.72;;;1.65;;
51612;SDS011;37694;51.748;14.326;2023-08-24T05:52:04;2.13;;;1.33;;
51612;SDS011;37694;51.748;14.326;2023-08-24T05:54:30;2.78;;;1.40;;
51612;SDS011;37694;51.748;14.326;2023-08-24T05:56:57;1.92;;;1.83;;
51612;SDS011;37694;51.748;14.326;2023-08-24T05:59:25;1.33;;;1.27;;
51612;SDS011;37694;51.748;14.326;2023-08-24T06:01:52;2.50;;;1.27;;
51612;SDS011;37694;51.748;14.326;2023-08-24T06:04:17;2.85;;;1.65;;
51612;SDS011;37694;51.748;14.326;2023-08-24T06:06:43;7.82;;;2.88;;
51612;SDS011;37694;51.748;14.326;2023-08-24T06:09:09;4.80;;;2.92;;
51612;SDS011;37694;51.748;14.326;2023-08-24T06:11:35;8.73;;;3.53;;
51612;SDS011;37694;51.748;14.326;2023-08-24T06:14:01;7.15;;;3.30;;
51612;SDS011;37694;51.748;14.326;2023-08-24T06:16:27;5.35;;;3.20;;
51612;SDS011;37694;51.748;14.326;2023-08-24T06:18:53;10.98;;;3.35;;
51612;SDS011;37694;51.748;14.326;2023-08-24T06:21:19;7.95;;;4.30;;
51612;SDS011;37694;51.748;14.326;2023-08-24T06:23:45;8.65;;;3.88;;
51612;SDS011;37694;51.748;14.326;2023-08-24T06:26:12;14.57;;;4.22;;
51612;SDS011;37694;51.748;14.326;2023-08-24T06:28:38;10.90;;;3.80;;
51612;SDS011;37694;51.748;14.326;2023-08-24T06:31:04;25.75;;;4.75;;
51612;SDS011;37694;51.748;14.326;2023-08-24T06:33:35;9.00;;;3.33;;
51612;SDS011;37694;51.748;14.326;2023-08-24T06:36:02;11.05;;;3.70;;
51612;SDS011;37694;51.748;14.326;2023-08-24T06:38:32;13.13;;;3.80;;
51612;SDS011;37694;51.748;14.326;2023-08-24T06:40:58;13.13;;;3.75;;
51612;SDS011;37694;51.748;14.326;2023-08-24T06:43:24;13.45;;;4.28;;
51612;SDS011;37694;51.748;14.326;2023-08-24T06:45:50;11.63;;;3.75;;
51612;SDS011;37694;51.748;14.326;2023-08-24T06:48:16;8.98;;;3.50;;
51612;SDS011;37694;51.748;14.326;2023-08-24T06:50:43;12.05;;;4.53;;
51612;SDS011;37694;51.748;14.326;2023-08-24T06:53:09;9.85;;;3.45;;
51612;SDS011;37694;51.748;14.326;2023-08-24T06:55:34;14.02;;;3.95;;
51612;SDS011;37694;51.748;14.326;2023-08-24T06:58:01;5.40;;;3.15;;
51612;SDS011;37694;51.748;14.326;2023-08-24T07:00:30;14.05;;;3.45;;
51612;SDS011;37694;51.748;14.326;2023-08-24T07:02:55;19.73;;;4.40;;
51612;SDS011;37694;51.748;14.326;2023-08-24T07:05:22;7.63;;;3.53;;
51612;SDS011;37694;51.748;14.326;2023-08-24T07:07:51;6.55;;;3.78;;
51612;SDS011;37694;51.748;14.326;2023-08-24T07:10:17;13.70;;;3.97;;
51612;SDS011;37694;51.748;14.326;2023-08-24T07:12:42;7.68;;;3.60;;
51612;SDS011;37694;51.748;14.326;2023-08-24T07:15:10;12.02;;;3.80;;
51612;SDS011;37694;51.748;14.326;2023-08-24T07:17:36;11.05;;;4.38;;
51612;SDS011;37694;51.748;14.326;2023-08-24T07:20:02;12.18;;;4.85;;
51612;SDS011;37694;51.748;14.326;2023-08-24T07:22:33;7.55;;;4.30;;
51612;SDS011;37694;51.748;14.326;2023-08-24T07:25:00;11.68;;;4.30;;
51612;SDS011;37694;51.748;14.326;2023-08-24T07:27:28;11.82;;;4.88;;
51612;SDS011;37694;51.748;14.326;2023-08-24T07:29:54;10.43;;;4.40;;
51612;SDS011;37694;51.748;14.326;2023-08-24T07:32:20;18.92;;;4.20;;
51612;SDS011;37694;51.748;14.326;2023-08-24T07:34:45;12.15;;;3.90;;
51612;SDS011;37694;51.748;14.326;2023-08-24T07:37:11;12.80;;;3.75;;
51612;SDS011;37694;51.748;14.326;2023-08-24T07:39:37;14.25;;;3.78;;
51612;SDS011;37694;51.748;14.326;2023-08-24T07:42:03;9.30;;;3.80;;
51612;SDS011;37694;51.748;14.326;2023-08-24T07:44:29;12.73;;;3.83;;
51612;SDS011;37694;51.748;14.326;2023-08-24T07:46:55;12.45;;;3.33;;
51612;SDS011;37694;51.748;14.326;2023-08-24T07:49:21;11.25;;;3.75;;
51612;SDS011;37694;51.748;14.326;2023-08-24T07:51:46;9.00;;;3.45;;
51612;SDS011;37694;51.748;14.326;2023-08-24T07:54:12;12.75;;;3.90;;
51612;SDS011;37694;51.748;14.326;2023-08-24T07:56:38;9.68;;;3.28;;
51612;SDS011;37694;51.748;14.326;2023-08-24T07:59:04;10.57;;;3.40;;
51612;SDS011;37694;51.748;14.326;2023-08-24T08:01:29;18.50;;;3.95;;
51612;SDS011;37694;51.748;14.326;2023-08-24T08:03:55;10.38;;;3.13;;
51612;SDS011;37694;51.748;14.326;2023-08-24T08:06:21;9.77;;;3.35;;
51612;SDS011;37694;51.748;14.326;2023-08-24T08:08:49;11.40;;;3.55;;
51612;SDS011;37694;51.748;14.326;2023-08-24T08:11:16;10.75;;;3.15;;
51612;SDS011;37694;51.748;14.326;2023-08-24T08:13:42;8.15;;;3.15;;
51612;SDS011;37694;51.748;14.326;2023-08-24T08:16:08;9.43;;;3.13;;
51612;SDS011;37694;51.748;14.326;2023-08-24T08:18:36;19.85;;;3.45;;
51612;SDS011;37694;51.748;14.326;2023-08-24T08:21:10;10.45;;;2.97;;
51612;SDS011;37694;51.748;14.326;2023-08-24T08:23:39;10.77;;;3.38;;
51612;SDS011;37694;51.748;14.326;2023-08-24T08:26:05;14.80;;;2.85;;
51612;SDS011;37694;51.748;14.326;2023-08-24T08:28:32;9.77;;;2.85;;
51612;SDS011;37694;51.748;14.326;2023-08-24T08:30:59;16.27;;;3.28;;
51612;SDS011;37694;51.748;14.326;2023-08-24T08:33:25;17.67;;;3.47;;
51612;SDS011;37694;51.748;14.326;2023-08-24T08:35:51;24.80;;;4.10;;
51612;SDS011;37694;51.748;14.326;2023-08-24T08:38:16;8.43;;;2.90;;
51612;SDS011;37694;51.748;14.326;2023-08-24T08:40:42;16.90;;;2.85;;
51612;SDS011;37694;51.748;14.326;2023-08-24T08:43:10;15.63;;;4.38;;
51612;SDS011;37694;51.748;14.326;2023-08-24T08:45:36;23.10;;;3.05;;
51612;SDS011;37694;51.748;14.326;2023-08-24T08:48:01;19.20;;;3.30;;
51612;SDS011;37694;51.748;14.326;2023-08-24T08:50:28;13.52;;;2.50;;
51612;SDS011;37694;51.748;14.326;2023-08-24T08:52:56;13.63;;;2.42;;
51612;SDS011;37694;51.748;14.326;2023-08-24T08:55:23;6.30;;;2.80;;
51612;SDS011;37694;51.748;14.326;2023-08-24T08:57:50;16.08;;;2.40;;
51612;SDS011;37694;51.748;14.326;2023-08-24T09:00:18;12.57;;;2.72;;
51612;SDS011;37694;51.748;14.326;2023-08-24T09:02:45;6.65;;;2.35;;
51612;SDS011;37694;51.748;14.326;2023-08-24T09:05:12;4.22;;;1.92;;
51612;SDS011;37694;51.748;14.326;2023-08-24T09:07:41;14.18;;;2.70;;
51612;SDS011;37694;51.748;14.326;2023-08-24T09:10:07;7.88;;;2.42;;
51612;SDS011;37694;51.748;14.326;2023-08-24T09:12:34;8.68;;;2.10;;
51612;SDS011;37694;51.748;14.326;2023-08-24T09:15:03;11.48;;;2.90;;
51612;SDS011;37694;51.748;14.326;2023-08-24T09:17:32;8.20;;;2.25;;
51612;SDS011;37694;51.748;14.326;2023-08-24T09:19:59;8.27;;;2.25;;
51612;SDS011;37694;51.748;14.326;2023-08-24T09:22:25;13.02;;;2.50;;
51612;SDS011;37694;51.748;14.326;2023-08-24T09:24:51;8.75;;;2.40;;
51612;SDS011;37694;51.748;14.326;2023-08-24T09:27:20;3.92;;;2.03;;
51612;SDS011;37694;51.748;14.326;2023-08-24T09:29:50;9.38;;;2.70;;
51612;SDS011;37694;51.748;14.326;2023-08-24T09:32:29;14.15;;;2.05;;
51612;SDS011;37694;51.748;14.326;2023-08-24T09:35:01;5.90;;;2.40;;
51612;SDS011;37694;51.748;14.326;2023-08-24T09:37:34;13.48;;;3.08;;
51612;SDS011;37694;51.748;14.326;2023-08-24T09:40:01;6.82;;;2.25;;
51612;SDS011;37694;51.748;14.326;2023-08-24T09:42:39;8.43;;;2.30;;
51612;SDS011;37694;51.748;14.326;2023-08-24T09:45:07;14.05;;;2.47;;
51612;SDS011;37694;51.748;14.326;2023-08-24T09:47:36;7.78;;;2.67;;
51612;SDS011;37694;51.748;14.326;2023-08-24T09:50:02;9.68;;;3.33;;
51612;SDS011;37694;51.748;14.326;2023-08-24T09:52:31;7.80;;;2.45;;
51612;SDS011;37694;51.748;14.326;2023-08-24T09:54:59;9.75;;;2.00;;
51612;SDS011;37694;51.748;14.326;2023-08-24T09:57:36;12.10;;;2.55;;
51612;SDS011;37694;51.748;14.326;2023-08-24T10:00:13;4.30;;;2.28;;
51612;SDS011;37694;51.748;14.326;2023-08-24T10:02:48;7.95;;;2.47;;
51612;SDS011;37694;51.748;14.326;2023-08-24T10:05:19;8.15;;;2.55;;
51612;SDS011;37694;51.748;14.326;2023-08-24T10:07:51;5.47;;;2.15;;
51612;SDS011;37694;51.748;14.326;2023-08-24T10:10:19;13.00;;;2.85;;
51612;SDS011;37694;51.748;14.326;2023-08-24T10:12:47;8.82;;;2.70;;
51612;SDS011;37694;51.748;14.326;2023-08-24T10:15:16;9.55;;;2.80;;
51612;SDS011;37694;51.748;14.326;2023-08-24T10:17:43;12.63;;;3.05;;
51612;SDS011;37694;51.748;14.326;2023-08-24T10:20:10;8.13;;;3.15;;
51612;SDS011;37694;51.748;14.326;2023-08-24T10:22:37;8.20;;;2.95;;
51612;SDS011;37694;51.748;14.326;2023-08-24T10:25:06;9.50;;;3.35;;
51612;SDS011;37694;51.748;14.326;2023-08-24T10:27:34;10.57;;;3.65;;
51612;SDS011;37694;51.748;14.326;2023-08-24T10:30:00;14.10;;;3.67;;
51612;SDS011;37694;51.748;14.326;2023-08-24T10:32:25;10.60;;;4.60;;
51612;SDS011;37694;51.748;14.326;2023-08-24T10:34:52;12.63;;;3.17;;
51612;SDS011;37694;51.748;14.326;2023-08-24T10:37:24;11.40;;;4.18;;
51612;SDS011;37694;51.748;14.326;2023-08-24T10:39:52;9.52;;;3.58;;
51612;SDS011;37694;51.748;14.326;2023-08-24T10:42:17;8.25;;;3.30;;
51612;SDS011;37694;51.748;14.326;2023-08-24T10:44:46;11.95;;;2.83;;
51612;SDS011;37694;51.748;14.326;2023-08-24T10:52:24;8.10;;;2.88;;
51612;SDS011;37694;51.748;14.326;2023-08-24T10:54:54;7.43;;;2.90;;
51612;SDS011;37694;51.748;14.326;2023-08-24T10:57:27;16.88;;;3.15;;
51612;SDS011;37694;51.748;14.326;2023-08-24T11:00:09;12.20;;;3.00;;
51612;SDS011;37694;51.748;14.326;2023-08-24T11:02:44;16.58;;;3.33;;
51612;SDS011;37694;51.748;14.326;2023-08-24T11:08:00;12.40;;;2.90;;
51612;SDS011;37694;51.748;14.326;2023-08-24T11:10:35;6.93;;;2.60;;
51612;SDS011;37694;51.748;14.326;2023-08-24T11:15:43;8.63;;;2.72;;
51612;SDS011;37694;51.748;14.326;2023-08-24T11:18:11;4.07;;;2.35;;
51612;SDS011;37694;51.748;14.326;2023-08-24T11:20:37;7.40;;;2.33;;
51612;SDS011;37694;51.748;14.326;2023-08-24T11:23:08;8.85;;;2.90;;
51612;SDS011;37694;51.748;14.326;2023-08-24T11:25:38;9.52;;;2.63;;
51612;SDS011;37694;51.748;14.326;2023-08-24T11:28:04;10.32;;;2.65;;
51612;SDS011;37694;51.748;14.326;2023-08-24T11:30:33;5.95;;;2.35;;
51612;SDS011;37694;51.748;14.326;2023-08-24T11:33:00;8.48;;;2.92;;
51612;SDS011;37694;51.748;14.326;2023-08-24T11:35:26;8.38;;;2.53;;
51612;SDS011;37694;51.748;14.326;2023-08-24T11:37:52;6.28;;;2.28;;
51612;SDS011;37694;51.748;14.326;2023-08-24T11:40:19;8.80;;;2.70;;
51612;SDS011;37694;51.748;14.326;2023-08-24T11:42:54;10.27;;;2.43;;
51612;SDS011;37694;51.748;14.326;2023-08-24T11:45:21;10.63;;;2.85;;
51612;SDS011;37694;51.748;14.326;2023-08-24T11:47:47;15.32;;;4.07;;
51612;SDS011;37694;51.748;14.326;2023-08-24T11:50:14;14.55;;;3.60;;
51612;SDS011;37694;51.748;14.326;2023-08-24T11:52:40;15.82;;;3.30;;
51612;SDS011;37694;51.748;14.326;2023-08-24T11:55:09;20.08;;;3.83;;
51612;SDS011;37694;51.748;14.326;2023-08-24T11:57:35;20.38;;;3.88;;
51612;SDS011;37694;51.748;14.326;2023-08-24T12:00:04;35.92;;;4.88;;
51612;SDS011;37694;51.748;14.326;2023-08-24T12:02:31;18.33;;;3.95;;
51612;SDS011;37694;51.748;14.326;2023-08-24T12:04:58;22.50;;;3.72;;
51612;SDS011;37694;51.748;14.326;2023-08-24T12:07:24;19.38;;;4.35;;
51612;SDS011;37694;51.748;14.326;2023-08-24T12:09:53;12.10;;;3.38;;
51612;SDS011;37694;51.748;14.326;2023-08-24T12:12:19;14.88;;;2.85;;
51612;SDS011;37694;51.748;14.326;2023-08-24T12:14:46;12.18;;;3.05;;
51612;SDS011;37694;51.748;14.326;2023-08-24T12:17:13;10.07;;;3.63;;
51612;SDS011;37694;51.748;14.326;2023-08-24T12:19:43;18.95;;;3.08;;
51612;SDS011;37694;51.748;14.326;2023-08-24T12:22:13;15.25;;;3.03;;
51612;SDS011;37694;51.748;14.326;2023-08-24T12:24:43;13.02;;;3.80;;
51612;SDS011;37694;51.748;14.326;2023-08-24T12:27:18;11.05;;;2.70;;
51612;SDS011;37694;51.748;14.326;2023-08-24T12:29:45;10.55;;;3.72;;
51612;SDS011;37694;51.748;14.326;2023-08-24T12:32:11;11.00;;;2.60;;
51612;SDS011;37694;51.748;14.326;2023-08-24T12:34:37;11.20;;;2.92;;
51612;SDS011;37694;51.748;14.326;2023-08-24T12:37:03;11.80;;;2.80;;
51612;SDS011;37694;51.748;14.326;2023-08-24T12:39:32;7.35;;;2.85;;
51612;SDS011;37694;51.748;14.326;2023-08-24T12:42:01;8.63;;;3.03;;
51612;SDS011;37694;51.748;14.326;2023-08-24T12:44:27;10.55;;;2.72;;
51612;SDS011;37694;51.748;14.326;2023-08-24T12:46:53;8.68;;;2.55;;
51612;SDS011;37694;51.748;14.326;2023-08-24T12:49:18;10.45;;;2.90;;
51612;SDS011;37694;51.748;14.326;2023-08-24T12:51:44;9.98;;;3.00;;
51612;SDS011;37694;51.748;14.326;2023-08-24T12:54:11;7.55;;;3.00;;
51612;SDS011;37694;51.748;14.326;2023-08-24T12:56:37;7.85;;;3.35;;
51612;SDS011;37694;51.748;14.326;2023-08-24T12:59:04;4.25;;;2.53;;
51612;SDS011;37694;51.748;14.326;2023-08-24T13:01:30;4.90;;;2.58;;
51612;SDS011;37694;51.748;14.326;2023-08-24T13:03:56;6.03;;;2.33;;
51612;SDS011;37694;51.748;14.326;2023-08-24T13:06:21;8.50;;;2.40;;
51612;SDS011;37694;51.748;14.326;2023-08-24T13:08:47;3.90;;;2.35;;
51612;SDS011;37694;51.748;14.326;2023-08-24T13:11:12;10.65;;;2.50;;
51612;SDS011;37694;51.748;14.326;2023-08-24T13:13:38;6.80;;;2.50;;
51612;SDS011;37694;51.748;14.326;2023-08-24T13:16:04;5.05;;;2.40;;
51612;SDS011;37694;51.748;14.326;2023-08-24T13:18:29;3.95;;;2.33;;
51612;SDS011;37694;51.748;14.326;2023-08-24T13:20:55;4.68;;;2.20;;
51612;SDS011;37694;51.748;14.326;2023-08-24T13:23:21;4.70;;;2.53;;
51612;SDS011;37694;51.748;14.326;2023-08-24T13:25:46;4.13;;;2.45;;
51612;SDS011;37694;51.748;14.326;2023-08-24T13:28:12;7.22;;;2.40;;
51612;SDS011;37694;51.748;14.326;2023-08-24T13:30:38;4.82;;;2.20;;
51612;SDS011;37694;51.748;14.326;2023-08-24T13:33:03;3.20;;;2.17;;
51612;SDS011;37694;51.748;14.326;2023-08-24T13:35:29;3.88;;;2.13;;
51612;SDS011;37694;51.748;14.326;2023-08-24T13:37:54;3.45;;;2.15;;
51612;SDS011;37694;51.748;14.326;2023-08-24T13:40:20;3.10;;;2.47;;
51612;SDS011;37694;51.748;14.326;2023-08-24T13:42:46;3.38;;;1.73;;
51612;SDS011;37694;51.748;14.326;2023-08-24T13:45:11;3.83;;;2.20;;
51612;SDS011;37694;51.748;14.326;2023-08-24T13:47:37;4.28;;;2.15;;
51612;SDS011;37694;51.748;14.326;2023-08-24T13:50:03;2.22;;;2.00;;
51612;SDS011;37694;51.748;14.326;2023-08-24T13:52:29;3.95;;;2.20;;
51612;SDS011;37694;51.748;14.326;2023-08-24T13:54:55;2.30;;;2.10;;
51612;SDS011;37694;51.748;14.326;2023-08-24T13:57:20;2.53;;;2.10;;
51612;SDS011;37694;51.748;14.326;2023-08-24T13:59:46;3.03;;;1.58;;
51612;SDS011;37694;51.748;14.326;2023-08-24T14:02:11;2.08;;;1.88;;
51612;SDS011;37694;51.748;14.326;2023-08-24T14:04:37;2.47;;;1.95;;
51612;SDS011;37694;51.748;14.326;2023-08-24T14:07:03;3.90;;;1.92;;
51612;SDS011;37694;51.748;14.326;2023-08-24T14:09:29;4.32;;;1.83;;
51612;SDS011;37694;51.748;14.326;2023-08-24T14:11:55;4.60;;;1.95;;
51612;SDS011;37694;51.748;14.326;2023-08-24T14:14:21;2.65;;;2.05;;
51612;SDS011;37694;51.748;14.326;2023-08-24T14:16:48;4.00;;;1.95;;
51612;SDS011;37694;51.748;14.326;2023-08-24T14:19:19;2.25;;;2.00;;
51612;SDS011;37694;51.748;14.326;2023-08-24T14:21:44;2.30;;;2.10;;
51612;SDS011;37694;51.748;14.326;2023-08-24T14:24:10;2.53;;;1.88;;
51612;SDS011;37694;51.748;14.326;2023-08-24T14:26:36;2.55;;;2.00;;
51612;SDS011;37694;51.748;14.326;2023-08-24T14:29:04;1.95;;;1.83;;
51612;SDS011;37694;51.748;14.326;2023-08-24T14:31:30;3.45;;;2.50;;
51612;SDS011;37694;51.748;14.326;2023-08-24T14:33:56;2.13;;;1.92;;
51612;SDS011;37694;51.748;14.326;2023-08-24T14:36:22;2.22;;;2.03;;
51612;SDS011;37694;51.748;14.326;2023-08-24T14:38:48;3.03;;;1.80;;
51612;SDS011;37694;51.748;14.326;2023-08-24T14:41:15;4.50;;;1.85;;
51612;SDS011;37694;51.748;14.326;2023-08-24T14:43:41;3.15;;;1.73;;
51612;SDS011;37694;51.748;14.326;2023-08-24T14:46:07;3.28;;;2.30;;
51612;SDS011;37694;51.748;14.326;2023-08-24T14:48:33;2.08;;;1.58;;